MAPA DE AEROPUERTO

INFORMACIÓN METAR y TAF

METAR FOR LEPP
ADDS - METARS form results

(0053 UTC 05 August 2021)
Data provider http://aviationweather.gov/metar/data/
 
METAR text: LEPP 050030Z AUTO 36004KT 9999 FEW030 17/13 Q1019
Conditions at: LEPP (PAMPLONA/NOAIN , ES) observed 0030 UTC 05 August 2021
Temperature: 17.0°C (63°F)
Dewpoint: 13.0°C (55°F) [RH = 77%]
Pressure (altimeter): 30.09 inches Hg (1019.0 mb)
Winds: from the N (360 degrees) at 5 MPH (4 knots; 2.1 m/s)
Visibility: 6 or more miles (10+ km)
Ceiling: at least 12,000 feet AGL
Clouds: few clouds at 3000 feet AGL
Weather: no significant weather observed at this time

METAR text: LEPP 050000Z AUTO 35005KT 290V050 9999 OVC031 18/13 Q1019
Conditions at: LEPP (PAMPLONA/NOAIN , ES) observed 0000 UTC 05 August 2021
Temperature: 18.0°C (64°F)
Dewpoint: 13.0°C (55°F) [RH = 73%]
Pressure (altimeter): 30.09 inches Hg (1019.0 mb)
Winds: from the N (350 degrees) at 6 MPH (5 knots; 2.6 m/s)
Visibility: 6 or more miles (10+ km)
Ceiling: 3100 feet AGL
Clouds: overcast cloud deck at 3100 feet AGL
Weather: no significant weather observed at this time

Forecast for: LEPP (PAMPLONA/NOAIN , ES)
Text: TAF LEPP 042000Z 0421/0521 VRB03KT 9999 FEW030 TX31/0516Z TN12/0505Z
Forecast period: 2100 UTC 04 August 2021 to 1500 UTC 05 August 2021
Forecast type: FROM: standard forecast or significant change
Winds: variable direction winds at 3 MPH (3 knots; 1.5 m/s)
Visibility: 6 or more miles (10+ km)
Ceiling: at least 12,000 feet AGL
Clouds: few clouds at 3000 feet AGL
Weather: no significant weather forecast for this period
Text: PROB30
Forecast period: 2100 to 2300 UTC 04 August 2021
Forecast type: TEMPORARY: The following changes expected for less than half the time period
Winds: from the N (10 degrees) at 12 MPH (10 knots; 5.1 m/s)
Visibility: missing
Ceiling: unknown
Clouds: missing
Weather: no significant weather forecast for this period
Text: TEMPO 0421/0423 01010KT
Forecast period: 0000 to 0600 UTC 05 August 2021
Forecast type: TEMPORARY: The following changes expected for less than half the time period
Visibility: 1.86 miles (2.99 km)
Ceiling: 1000 feet AGL
Clouds: broken clouds at 1000 feet AGL
Weather: BR  (mist)
Text: PROB30
Forecast period: 1500 to 2100 UTC 05 August 2021
Forecast type: BECOMING: Conditions expected to become as follows by 1700 UTC 05 August 2021
Winds: from the N (360 degrees) at 14 MPH (12 knots; 6.2 m/s)
Visibility: 6 or more miles (10+ km)
Ceiling: at least 12,000 feet AGL
Clouds: few clouds at 3000 feet AGL
Weather: no significant weather forecast for this period
Text: TEMPO 0500/0506 3000 BR BKN010
Forecast period: 1600 to 1800 UTC 05 August 2021
Forecast type: TEMPORARY: The following changes expected for less than half the time period
Winds: from the N (360 degrees) at 23 MPH (20 knots; 10.3 m/s)
gusting to 37 MPH (32 knots; 16.5 m/s)
Visibility: missing
Ceiling: unknown
Clouds: missing
Weather: no significant weather forecast for this period